sensor_id;sensor_type;location;lat;lon;timestamp;temperature;humidity
73149;SHT30;61346;48.930;2.266;2022-07-17T00:01:19;23.61;35.63
73149;SHT30;61346;48.930;2.266;2022-07-17T00:03:44;23.57;36.16
73149;SHT30;61346;48.930;2.266;2022-07-17T00:06:10;23.54;36.10
73149;SHT30;61346;48.930;2.266;2022-07-17T00:08:35;23.49;36.12
73149;SHT30;61346;48.930;2.266;2022-07-17T00:11:01;23.43;36.85
73149;SHT30;61346;48.930;2.266;2022-07-17T00:13:27;23.43;36.14
73149;SHT30;61346;48.930;2.266;2022-07-17T00:15:52;23.37;36.32
73149;SHT30;61346;48.930;2.266;2022-07-17T00:18:18;23.37;36.16
73149;SHT30;61346;48.930;2.266;2022-07-17T00:20:44;23.30;36.36
73149;SHT30;61346;48.930;2.266;2022-07-17T00:23:09;23.24;36.26
73149;SHT30;61346;48.930;2.266;2022-07-17T00:25:36;23.22;36.18
73149;SHT30;61346;48.930;2.266;2022-07-17T00:28:02;23.16;36.10
73149;SHT30;61346;48.930;2.266;2022-07-17T00:30:29;23.13;36.21
73149;SHT30;61346;48.930;2.266;2022-07-17T00:32:54;23.13;36.28
73149;SHT30;61346;48.930;2.266;2022-07-17T00:35:20;23.07;36.36
73149;SHT30;61346;48.930;2.266;2022-07-17T00:37:47;23.02;36.40
73149;SHT30;61346;48.930;2.266;2022-07-17T00:40:18;23.00;36.38
73149;SHT30;61346;48.930;2.266;2022-07-17T00:42:44;22.96;36.41
73149;SHT30;61346;48.930;2.266;2022-07-17T00:45:13;22.92;36.43
73149;SHT30;61346;48.930;2.266;2022-07-17T00:48:10;22.88;36.54
73149;SHT30;61346;48.930;2.266;2022-07-17T00:50:40;22.85;36.63
73149;SHT30;61346;48.930;2.266;2022-07-17T00:53:07;22.79;36.75
73149;SHT30;61346;48.930;2.266;2022-07-17T00:55:33;22.78;36.86
73149;SHT30;61346;48.930;2.266;2022-07-17T00:58:03;22.73;37.18
73149;SHT30;61346;48.930;2.266;2022-07-17T01:00:32;22.69;37.04
73149;SHT30;61346;48.930;2.266;2022-07-17T01:03:01;22.64;36.95
73149;SHT30;61346;48.930;2.266;2022-07-17T01:05:29;22.59;36.92
73149;SHT30;61346;48.930;2.266;2022-07-17T01:07:55;22.58;37.01
73149;SHT30;61346;48.930;2.266;2022-07-17T01:10:20;22.52;37.05
73149;SHT30;61346;48.930;2.266;2022-07-17T01:12:47;22.52;37.20
73149;SHT30;61346;48.930;2.266;2022-07-17T01:15:14;22.48;37.20
73149;SHT30;61346;48.930;2.266;2022-07-17T01:17:45;22.47;37.22
73149;SHT30;61346;48.930;2.266;2022-07-17T01:20:12;22.44;37.35
73149;SHT30;61346;48.930;2.266;2022-07-17T01:22:46;22.40;37.62
73149;SHT30;61346;48.930;2.266;2022-07-17T01:25:13;22.36;37.47
73149;SHT30;61346;48.930;2.266;2022-07-17T01:27:39;22.33;37.62
73149;SHT30;61346;48.930;2.266;2022-07-17T01:30:05;22.33;37.75
73149;SHT30;61346;48.930;2.266;2022-07-17T01:32:37;22.27;37.69
73149;SHT30;61346;48.930;2.266;2022-07-17T01:35:04;22.25;37.81
73149;SHT30;61346;48.930;2.266;2022-07-17T01:37:30;22.21;37.80
73149;SHT30;61346;48.930;2.266;2022-07-17T01:39:55;22.20;37.77
73149;SHT30;61346;48.930;2.266;2022-07-17T01:42:22;22.16;37.85
73149;SHT30;61346;48.930;2.266;2022-07-17T01:44:49;22.13;38.09
73149;SHT30;61346;48.930;2.266;2022-07-17T01:47:14;22.10;38.07
73149;SHT30;61346;48.930;2.266;2022-07-17T01:49:53;22.07;38.23
73149;SHT30;61346;48.930;2.266;2022-07-17T01:52:20;22.04;38.43
73149;SHT30;61346;48.930;2.266;2022-07-17T01:54:45;22.00;38.38
73149;SHT30;61346;48.930;2.266;2022-07-17T01:57:11;21.96;38.48
73149;SHT30;61346;48.930;2.266;2022-07-17T01:59:41;21.93;38.48
73149;SHT30;61346;48.930;2.266;2022-07-17T02:02:09;21.90;38.44
73149;SHT30;61346;48.930;2.266;2022-07-17T02:04:36;21.88;38.67
73149;SHT30;61346;48.930;2.266;2022-07-17T02:07:03;21.83;38.70
73149;SHT30;61346;48.930;2.266;2022-07-17T02:09:30;21.78;38.94
73149;SHT30;61346;48.930;2.266;2022-07-17T02:12:05;21.75;38.78
73149;SHT30;61346;48.930;2.266;2022-07-17T02:14:31;21.69;38.87
73149;SHT30;61346;48.930;2.266;2022-07-17T02:16:59;21.66;38.96
73149;SHT30;61346;48.930;2.266;2022-07-17T02:19:28;21.63;38.97
73149;SHT30;61346;48.930;2.266;2022-07-17T02:21:53;21.59;39.08
73149;SHT30;61346;48.930;2.266;2022-07-17T02:24:21;21.58;39.11
73149;SHT30;61346;48.930;2.266;2022-07-17T02:26:47;21.55;39.19
73149;SHT30;61346;48.930;2.266;2022-07-17T02:29:12;21.49;39.37
73149;SHT30;61346;48.930;2.266;2022-07-17T02:31:37;21.47;39.31
73149;SHT30;61346;48.930;2.266;2022-07-17T02:34:03;21.44;39.39
73149;SHT30;61346;48.930;2.266;2022-07-17T02:36:28;21.41;39.40
73149;SHT30;61346;48.930;2.266;2022-07-17T02:38:57;21.37;39.65
73149;SHT30;61346;48.930;2.266;2022-07-17T02:41:22;21.32;39.59
73149;SHT30;61346;48.930;2.266;2022-07-17T02:43:48;21.31;39.59
73149;SHT30;61346;48.930;2.266;2022-07-17T02:46:17;21.27;39.68
73149;SHT30;61346;48.930;2.266;2022-07-17T02:48:44;21.21;39.71
73149;SHT30;61346;48.930;2.266;2022-07-17T02:51:11;21.17;39.74
73149;SHT30;61346;48.930;2.266;2022-07-17T02:53:37;21.14;39.83
73149;SHT30;61346;48.930;2.266;2022-07-17T02:56:02;21.11;39.88
73149;SHT30;61346;48.930;2.266;2022-07-17T02:58:32;21.04;39.95
73149;SHT30;61346;48.930;2.266;2022-07-17T03:00:58;21.03;40.13
73149;SHT30;61346;48.930;2.266;2022-07-17T03:03:24;20.99;40.16
73149;SHT30;61346;48.930;2.266;2022-07-17T03:05:49;20.97;40.22
73149;SHT30;61346;48.930;2.266;2022-07-17T03:08:15;20.92;40.28
73149;SHT30;61346;48.930;2.266;2022-07-17T03:10:41;20.87;40.32
73149;SHT30;61346;48.930;2.266;2022-07-17T03:13:15;20.84;40.30
73149;SHT30;61346;48.930;2.266;2022-07-17T03:15:44;20.84;40.40
73149;SHT30;61346;48.930;2.266;2022-07-17T03:18:11;20.77;40.62
73149;SHT30;61346;48.930;2.266;2022-07-17T03:20:37;20.76;40.78
73149;SHT30;61346;48.930;2.266;2022-07-17T03:23:05;20.75;40.70
73149;SHT30;61346;48.930;2.266;2022-07-17T03:25:30;20.72;40.76
73149;SHT30;61346;48.930;2.266;2022-07-17T03:27:56;20.69;40.95
73149;SHT30;61346;48.930;2.266;2022-07-17T03:30:21;20.68;41.00
73149;SHT30;61346;48.930;2.266;2022-07-17T03:32:49;20.65;41.07
73149;SHT30;61346;48.930;2.266;2022-07-17T03:35:14;20.65;41.07
73149;SHT30;61346;48.930;2.266;2022-07-17T03:37:42;20.63;41.07
73149;SHT30;61346;48.930;2.266;2022-07-17T03:40:10;20.61;41.04
73149;SHT30;61346;48.930;2.266;2022-07-17T03:42:37;20.59;41.02
73149;SHT30;61346;48.930;2.266;2022-07-17T03:45:02;20.57;41.04
73149;SHT30;61346;48.930;2.266;2022-07-17T03:47:28;20.53;41.19
73149;SHT30;61346;48.930;2.266;2022-07-17T03:49:54;20.53;41.20
73149;SHT30;61346;48.930;2.266;2022-07-17T03:52:19;20.53;41.26
73149;SHT30;61346;48.930;2.266;2022-07-17T03:54:44;20.51;41.32
73149;SHT30;61346;48.930;2.266;2022-07-17T03:57:10;20.49;41.48
73149;SHT30;61346;48.930;2.266;2022-07-17T03:59:36;20.48;41.52
73149;SHT30;61346;48.930;2.266;2022-07-17T04:02:09;20.45;41.61
73149;SHT30;61346;48.930;2.266;2022-07-17T04:04:37;20.42;41.67
73149;SHT30;61346;48.930;2.266;2022-07-17T04:07:02;20.41;41.74
73149;SHT30;61346;48.930;2.266;2022-07-17T04:09:28;20.39;42.02
73149;SHT30;61346;48.930;2.266;2022-07-17T04:11:53;20.38;42.22
73149;SHT30;61346;48.930;2.266;2022-07-17T04:14:19;20.37;42.04
73149;SHT30;61346;48.930;2.266;2022-07-17T04:16:44;20.34;42.08
73149;SHT30;61346;48.930;2.266;2022-07-17T04:19:10;20.31;41.95
73149;SHT30;61346;48.930;2.266;2022-07-17T04:21:38;20.31;42.11
73149;SHT30;61346;48.930;2.266;2022-07-17T04:24:04;20.27;42.08
73149;SHT30;61346;48.930;2.266;2022-07-17T04:26:32;20.24;42.15
73149;SHT30;61346;48.930;2.266;2022-07-17T04:28:57;20.27;42.15
73149;SHT30;61346;48.930;2.266;2022-07-17T04:31:32;20.22;42.23
73149;SHT30;61346;48.930;2.266;2022-07-17T04:33:58;20.25;42.23
73149;SHT30;61346;48.930;2.266;2022-07-17T04:36:25;20.22;42.26
73149;SHT30;61346;48.930;2.266;2022-07-17T04:38:52;20.22;42.44
73149;SHT30;61346;48.930;2.266;2022-07-17T04:41:17;20.22;42.52
73149;SHT30;61346;48.930;2.266;2022-07-17T04:43:43;20.22;42.60
73149;SHT30;61346;48.930;2.266;2022-07-17T04:46:08;20.21;42.68
73149;SHT30;61346;48.930;2.266;2022-07-17T04:48:37;20.22;42.58
73149;SHT30;61346;48.930;2.266;2022-07-17T04:51:02;20.20;42.47
73149;SHT30;61346;48.930;2.266;2022-07-17T04:53:28;20.21;42.61
73149;SHT30;61346;48.930;2.266;2022-07-17T04:56:05;20.20;42.73
73149;SHT30;61346;48.930;2.266;2022-07-17T04:58:31;20.22;42.99
73149;SHT30;61346;48.930;2.266;2022-07-17T05:00:57;20.21;43.15
73149;SHT30;61346;48.930;2.266;2022-07-17T05:03:23;20.18;43.13
73149;SHT30;61346;48.930;2.266;2022-07-17T05:05:53;20.21;43.12
73149;SHT30;61346;48.930;2.266;2022-07-17T05:08:23;20.22;43.10
73149;SHT30;61346;48.930;2.266;2022-07-17T05:10:49;20.22;43.21
73149;SHT30;61346;48.930;2.266;2022-07-17T05:13:15;20.27;43.09
73149;SHT30;61346;48.930;2.266;2022-07-17T05:15:43;20.27;43.02
73149;SHT30;61346;48.930;2.266;2022-07-17T05:18:12;20.31;43.04
73149;SHT30;61346;48.930;2.266;2022-07-17T05:20:39;20.35;43.07
73149;SHT30;61346;48.930;2.266;2022-07-17T05:23:05;20.39;43.19
73149;SHT30;61346;48.930;2.266;2022-07-17T05:25:32;20.39;43.20
73149;SHT30;61346;48.930;2.266;2022-07-17T05:28:02;20.44;43.13
73149;SHT30;61346;48.930;2.266;2022-07-17T05:30:27;20.49;43.14
73149;SHT30;61346;48.930;2.266;2022-07-17T05:32:56;20.52;43.15
73149;SHT30;61346;48.930;2.266;2022-07-17T05:35:21;20.52;43.22
73149;SHT30;61346;48.930;2.266;2022-07-17T05:37:47;20.55;43.20
73149;SHT30;61346;48.930;2.266;2022-07-17T05:40:13;20.62;43.20
73149;SHT30;61346;48.930;2.266;2022-07-17T05:42:41;20.68;43.15
73149;SHT30;61346;48.930;2.266;2022-07-17T05:45:07;20.71;43.42
73149;SHT30;61346;48.930;2.266;2022-07-17T05:47:32;20.73;43.21
73149;SHT30;61346;48.930;2.266;2022-07-17T05:49:58;20.76;43.15
73149;SHT30;61346;48.930;2.266;2022-07-17T05:52:25;20.82;43.17
73149;SHT30;61346;48.930;2.266;2022-07-17T05:54:50;20.86;43.14
73149;SHT30;61346;48.930;2.266;2022-07-17T05:57:17;20.89;43.13
73149;SHT30;61346;48.930;2.266;2022-07-17T05:59:44;20.93;43.06
73149;SHT30;61346;48.930;2.266;2022-07-17T06:02:16;20.94;43.10
73149;SHT30;61346;48.930;2.266;2022-07-17T06:04:42;20.97;43.15
73149;SHT30;61346;48.930;2.266;2022-07-17T06:07:15;21.07;43.08
73149;SHT30;61346;48.930;2.266;2022-07-17T06:09:42;21.11;43.16
73149;SHT30;61346;48.930;2.266;2022-07-17T06:12:08;21.17;43.00
73149;SHT30;61346;48.930;2.266;2022-07-17T06:14:35;21.20;42.98
73149;SHT30;61346;48.930;2.266;2022-07-17T06:17:01;21.30;43.00
73149;SHT30;61346;48.930;2.266;2022-07-17T06:19:26;21.32;43.55
73149;SHT30;61346;48.930;2.266;2022-07-17T06:21:52;21.37;43.10
73149;SHT30;61346;48.930;2.266;2022-07-17T06:24:17;21.39;43.31
73149;SHT30;61346;48.930;2.266;2022-07-17T06:26:46;21.47;43.04
73149;SHT30;61346;48.930;2.266;2022-07-17T06:29:29;21.51;43.05
73149;SHT30;61346;48.930;2.266;2022-07-17T06:31:54;21.54;43.00
73149;SHT30;61346;48.930;2.266;2022-07-17T06:34:27;21.61;42.88
73149;SHT30;61346;48.930;2.266;2022-07-17T06:36:55;21.65;42.82
73149;SHT30;61346;48.930;2.266;2022-07-17T06:39:21;21.71;42.75
73149;SHT30;61346;48.930;2.266;2022-07-17T06:41:49;21.76;42.76
73149;SHT30;61346;48.930;2.266;2022-07-17T06:44:17;21.82;42.73
73149;SHT30;61346;48.930;2.266;2022-07-17T06:46:46;21.86;42.73
73149;SHT30;61346;48.930;2.266;2022-07-17T06:49:12;21.93;42.59
73149;SHT30;61346;48.930;2.266;2022-07-17T06:51:40;21.96;42.57
73149;SHT30;61346;48.930;2.266;2022-07-17T06:54:15;22.04;42.68
73149;SHT30;61346;48.930;2.266;2022-07-17T06:56:44;22.10;42.53
73149;SHT30;61346;48.930;2.266;2022-07-17T06:59:11;22.16;42.40
73149;SHT30;61346;48.930;2.266;2022-07-17T07:01:37;22.23;42.30
73149;SHT30;61346;48.930;2.266;2022-07-17T07:04:03;22.30;42.28
73149;SHT30;61346;48.930;2.266;2022-07-17T07:06:30;22.36;42.13
73149;SHT30;61346;48.930;2.266;2022-07-17T07:09:04;22.45;42.14
73149;SHT30;61346;48.930;2.266;2022-07-17T07:11:30;22.52;42.05
73149;SHT30;61346;48.930;2.266;2022-07-17T07:13:56;22.61;41.98
73149;SHT30;61346;48.930;2.266;2022-07-17T07:16:30;22.69;41.90
73149;SHT30;61346;48.930;2.266;2022-07-17T07:19:05;22.79;41.80
73149;SHT30;61346;48.930;2.266;2022-07-17T07:21:48;22.89;41.74
73149;SHT30;61346;48.930;2.266;2022-07-17T07:24:16;22.99;41.62
73149;SHT30;61346;48.930;2.266;2022-07-17T07:26:47;23.09;41.63
73149;SHT30;61346;48.930;2.266;2022-07-17T07:29:13;23.19;41.52
73149;SHT30;61346;48.930;2.266;2022-07-17T07:31:45;23.27;41.32
73149;SHT30;61346;48.930;2.266;2022-07-17T07:34:16;23.36;41.20
73149;SHT30;61346;48.930;2.266;2022-07-17T07:36:44;23.44;41.16
73149;SHT30;61346;48.930;2.266;2022-07-17T07:39:16;23.53;41.05
73149;SHT30;61346;48.930;2.266;2022-07-17T07:41:44;23.58;40.92
73149;SHT30;61346;48.930;2.266;2022-07-17T07:44:20;23.67;40.91
73149;SHT30;61346;48.930;2.266;2022-07-17T07:46:45;23.72;40.84
73149;SHT30;61346;48.930;2.266;2022-07-17T07:49:11;23.81;40.68
73149;SHT30;61346;48.930;2.266;2022-07-17T07:51:46;23.84;40.62
73149;SHT30;61346;48.930;2.266;2022-07-17T07:54:14;23.95;40.60
73149;SHT30;61346;48.930;2.266;2022-07-17T07:56:45;24.02;40.44
73149;SHT30;61346;48.930;2.266;2022-07-17T07:59:11;24.08;40.40
73149;SHT30;61346;48.930;2.266;2022-07-17T08:01:46;24.15;40.23
73149;SHT30;61346;48.930;2.266;2022-07-17T08:04:20;24.26;40.16
73149;SHT30;61346;48.930;2.266;2022-07-17T08:07:07;24.34;40.04
73149;SHT30;61346;48.930;2.266;2022-07-17T08:09:35;24.43;39.98
73149;SHT30;61346;48.930;2.266;2022-07-17T08:12:06;24.51;39.89
73149;SHT30;61346;48.930;2.266;2022-07-17T08:14:51;24.61;39.70
73149;SHT30;61346;48.930;2.266;2022-07-17T08:17:27;24.68;39.62
73149;SHT30;61346;48.930;2.266;2022-07-17T08:19:53;24.77;39.49
73149;SHT30;61346;48.930;2.266;2022-07-17T08:22:25;24.85;39.37
73149;SHT30;61346;48.930;2.266;2022-07-17T08:24:50;24.94;39.29
73149;SHT30;61346;48.930;2.266;2022-07-17T08:27:16;25.05;39.15
73149;SHT30;61346;48.930;2.266;2022-07-17T08:29:49;25.14;38.97
73149;SHT30;61346;48.930;2.266;2022-07-17T08:32:18;25.27;38.82
73149;SHT30;61346;48.930;2.266;2022-07-17T08:34:54;25.35;38.49
73149;SHT30;61346;48.930;2.266;2022-07-17T08:37:22;25.44;38.41
73149;SHT30;61346;48.930;2.266;2022-07-17T08:39:55;25.53;38.14
73149;SHT30;61346;48.930;2.266;2022-07-17T08:42:23;25.62;38.03
73149;SHT30;61346;48.930;2.266;2022-07-17T08:44:49;25.67;37.96
73149;SHT30;61346;48.930;2.266;2022-07-17T08:47:16;25.71;37.90
73149;SHT30;61346;48.930;2.266;2022-07-17T08:49:45;25.85;37.78
73149;SHT30;61346;48.930;2.266;2022-07-17T08:52:15;25.92;37.63
73149;SHT30;61346;48.930;2.266;2022-07-17T08:54:46;26.01;37.47
73149;SHT30;61346;48.930;2.266;2022-07-17T09:00:01;26.29;37.33
73149;SHT30;61346;48.930;2.266;2022-07-17T09:02:27;26.42;37.19
73149;SHT30;61346;48.930;2.266;2022-07-17T09:04:56;26.50;36.90
73149;SHT30;61346;48.930;2.266;2022-07-17T09:07:21;26.61;36.36
73149;SHT30;61346;48.930;2.266;2022-07-17T09:09:51;26.72;36.52
73149;SHT30;61346;48.930;2.266;2022-07-17T09:12:27;26.83;36.36
73149;SHT30;61346;48.930;2.266;2022-07-17T09:14:56;26.95;36.03
73149;SHT30;61346;48.930;2.266;2022-07-17T09:17:27;27.00;35.99
73149;SHT30;61346;48.930;2.266;2022-07-17T09:19:56;27.11;35.94
73149;SHT30;61346;48.930;2.266;2022-07-17T09:22:24;27.19;35.85
73149;SHT30;61346;48.930;2.266;2022-07-17T09:24:52;27.31;35.73
73149;SHT30;61346;48.930;2.266;2022-07-17T09:30:08;27.48;35.32
73149;SHT30;61346;48.930;2.266;2022-07-17T09:36:08;27.69;34.98
73149;SHT30;61346;48.930;2.266;2022-07-17T09:38:48;27.76;34.48
73149;SHT30;61346;48.930;2.266;2022-07-17T09:41:37;27.83;34.26
73149;SHT30;61346;48.930;2.266;2022-07-17T09:47:35;27.98;34.20
73149;SHT30;61346;48.930;2.266;2022-07-17T09:50:03;28.07;34.22
73149;SHT30;61346;48.930;2.266;2022-07-17T09:52:37;28.20;34.09
73149;SHT30;61346;48.930;2.266;2022-07-17T09:55:06;28.27;33.86
73149;SHT30;61346;48.930;2.266;2022-07-17T09:57:35;28.32;33.51
73149;SHT30;61346;48.930;2.266;2022-07-17T10:00:08;28.37;33.42
73149;SHT30;61346;48.930;2.266;2022-07-17T10:02:43;28.49;33.26
73149;SHT30;61346;48.930;2.266;2022-07-17T10:05:14;28.56;32.75
73149;SHT30;61346;48.930;2.266;2022-07-17T10:07:47;28.62;32.82
73149;SHT30;61346;48.930;2.266;2022-07-17T10:10:18;28.69;32.41
73149;SHT30;61346;48.930;2.266;2022-07-17T10:12:52;28.75;32.18
73149;SHT30;61346;48.930;2.266;2022-07-17T10:15:35;28.77;32.15
73149;SHT30;61346;48.930;2.266;2022-07-17T10:18:07;28.83;32.02
73149;SHT30;61346;48.930;2.266;2022-07-17T10:20:33;28.90;31.98
73149;SHT30;61346;48.930;2.266;2022-07-17T10:23:11;28.97;31.66
73149;SHT30;61346;48.930;2.266;2022-07-17T10:25:57;29.03;31.69
73149;SHT30;61346;48.930;2.266;2022-07-17T10:28:41;29.11;31.32
73149;SHT30;61346;48.930;2.266;2022-07-17T10:31:08;29.14;31.39
73149;SHT30;61346;48.930;2.266;2022-07-17T10:33:36;29.18;31.41
73149;SHT30;61346;48.930;2.266;2022-07-17T10:36:02;29.24;31.53
73149;SHT30;61346;48.930;2.266;2022-07-17T10:38:42;29.34;31.34
73149;SHT30;61346;48.930;2.266;2022-07-17T10:41:26;29.44;31.28
73149;SHT30;61346;48.930;2.266;2022-07-17T10:44:12;29.52;31.21
73149;SHT30;61346;48.930;2.266;2022-07-17T10:46:47;29.62;31.00
73149;SHT30;61346;48.930;2.266;2022-07-17T10:49:20;29.68;30.76
73149;SHT30;61346;48.930;2.266;2022-07-17T10:52:05;29.73;30.56
73149;SHT30;61346;48.930;2.266;2022-07-17T10:54:40;29.82;30.45
73149;SHT30;61346;48.930;2.266;2022-07-17T10:57:08;29.89;30.32
73149;SHT30;61346;48.930;2.266;2022-07-17T10:59:43;29.96;30.01
73149;SHT30;61346;48.930;2.266;2022-07-17T11:02:37;30.07;30.03
73149;SHT30;61346;48.930;2.266;2022-07-17T11:05:13;30.18;29.87
73149;SHT30;61346;48.930;2.266;2022-07-17T11:13:24;30.45;29.42
73149;SHT30;61346;48.930;2.266;2022-07-17T11:15:50;30.57;29.21
73149;SHT30;61346;48.930;2.266;2022-07-17T11:18:25;30.67;28.90
73149;SHT30;61346;48.930;2.266;2022-07-17T11:20:54;30.75;28.83
73149;SHT30;61346;48.930;2.266;2022-07-17T11:23:22;30.82;28.68
73149;SHT30;61346;48.930;2.266;2022-07-17T11:26:03;30.93;28.75
73149;SHT30;61346;48.930;2.266;2022-07-17T11:28:39;31.04;28.71
73149;SHT30;61346;48.930;2.266;2022-07-17T11:33:57;31.19;27.30
73149;SHT30;61346;48.930;2.266;2022-07-17T11:36:30;31.20;27.95
73149;SHT30;61346;48.930;2.266;2022-07-17T11:38:59;31.25;27.92
73149;SHT30;61346;48.930;2.266;2022-07-17T11:41:37;31.27;27.90
73149;SHT30;61346;48.930;2.266;2022-07-17T11:44:05;31.37;27.61
73149;SHT30;61346;48.930;2.266;2022-07-17T11:46:36;31.44;27.35
73149;SHT30;61346;48.930;2.266;2022-07-17T11:49:05;31.50;27.20
73149;SHT30;61346;48.930;2.266;2022-07-17T11:51:43;31.61;27.49
73149;SHT30;61346;48.930;2.266;2022-07-17T11:54:12;31.72;27.34
73149;SHT30;61346;48.930;2.266;2022-07-17T11:56:57;31.82;27.33
73149;SHT30;61346;48.930;2.266;2022-07-17T11:59:49;31.93;27.04
73149;SHT30;61346;48.930;2.266;2022-07-17T12:02:18;32.01;26.63
73149;SHT30;61346;48.930;2.266;2022-07-17T12:04:56;32.09;26.34
73149;SHT30;61346;48.930;2.266;2022-07-17T12:07:26;32.15;26.13
73149;SHT30;61346;48.930;2.266;2022-07-17T12:09:52;32.19;26.08
73149;SHT30;61346;48.930;2.266;2022-07-17T12:12:27;32.30;26.25
73149;SHT30;61346;48.930;2.266;2022-07-17T12:14:59;32.47;26.27
73149;SHT30;61346;48.930;2.266;2022-07-17T12:17:41;32.95;26.30
73149;SHT30;61346;48.930;2.266;2022-07-17T12:20:10;33.70;25.87
73149;SHT30;61346;48.930;2.266;2022-07-17T12:23:06;33.98;25.83
73149;SHT30;61346;48.930;2.266;2022-07-17T12:25:31;34.65;25.67
73149;SHT30;61346;48.930;2.266;2022-07-17T12:28:06;35.64;25.00
73149;SHT30;61346;48.930;2.266;2022-07-17T12:30:37;35.83;24.78
73149;SHT30;61346;48.930;2.266;2022-07-17T12:33:04;35.76;24.65
73149;SHT30;61346;48.930;2.266;2022-07-17T12:35:33;35.69;24.18
73149;SHT30;61346;48.930;2.266;2022-07-17T12:37:58;35.92;24.03
73149;SHT30;61346;48.930;2.266;2022-07-17T12:40:31;36.30;24.17
73149;SHT30;61346;48.930;2.266;2022-07-17T12:42:57;36.29;23.58
73149;SHT30;61346;48.930;2.266;2022-07-17T12:45:25;36.19;23.37
73149;SHT30;61346;48.930;2.266;2022-07-17T12:47:58;35.96;23.49
73149;SHT30;61346;48.930;2.266;2022-07-17T12:50:25;35.85;23.81
73149;SHT30;61346;48.930;2.266;2022-07-17T12:52:51;36.36;23.21
73149;SHT30;61346;48.930;2.266;2022-07-17T12:55:17;36.89;23.41
73149;SHT30;61346;48.930;2.266;2022-07-17T12:57:51;37.44;22.54
73149;SHT30;61346;48.930;2.266;2022-07-17T13:00:24;37.89;22.00
73149;SHT30;61346;48.930;2.266;2022-07-17T13:03:06;37.84;21.92
73149;SHT30;61346;48.930;2.266;2022-07-17T13:05:35;37.68;21.83
73149;SHT30;61346;48.930;2.266;2022-07-17T13:08:16;37.18;20.05
73149;SHT30;61346;48.930;2.266;2022-07-17T13:10:47;36.68;20.80
73149;SHT30;61346;48.930;2.266;2022-07-17T13:13:13;36.40;21.75
73149;SHT30;61346;48.930;2.266;2022-07-17T13:15:43;36.26;21.53
73149;SHT30;61346;48.930;2.266;2022-07-17T13:18:12;36.19;22.14
73149;SHT30;61346;48.930;2.266;2022-07-17T13:20:47;36.27;21.07
73149;SHT30;61346;48.930;2.266;2022-07-17T13:23:15;36.26;21.55
73149;SHT30;61346;48.930;2.266;2022-07-17T13:25:44;36.36;21.65
73149;SHT30;61346;48.930;2.266;2022-07-17T13:28:16;36.47;22.12
73149;SHT30;61346;48.930;2.266;2022-07-17T13:30:45;36.65;21.55
73149;SHT30;61346;48.930;2.266;2022-07-17T13:39:04;36.34;21.11
73149;SHT30;61346;48.930;2.266;2022-07-17T13:41:32;36.31;21.07
73149;SHT30;61346;48.930;2.266;2022-07-17T13:44:06;36.29;21.56
73149;SHT30;61346;48.930;2.266;2022-07-17T13:46:36;36.41;21.88
73149;SHT30;61346;48.930;2.266;2022-07-17T13:49:04;36.79;21.86
73149;SHT30;61346;48.930;2.266;2022-07-17T13:51:37;37.23;21.65
73149;SHT30;61346;48.930;2.266;2022-07-17T13:54:07;37.43;21.35
73149;SHT30;61346;48.930;2.266;2022-07-17T13:56:37;37.54;20.94
73149;SHT30;61346;48.930;2.266;2022-07-17T13:59:07;37.75;21.06
73149;SHT30;61346;48.930;2.266;2022-07-17T14:01:36;38.42;20.72
73149;SHT30;61346;48.930;2.266;2022-07-17T14:04:04;38.76;20.70
73149;SHT30;61346;48.930;2.266;2022-07-17T14:06:29;38.76;20.58
73149;SHT30;61346;48.930;2.266;2022-07-17T14:08:57;38.73;19.98
73149;SHT30;61346;48.930;2.266;2022-07-17T14:11:26;38.67;20.47
73149;SHT30;61346;48.930;2.266;2022-07-17T14:13:51;38.66;20.58
73149;SHT30;61346;48.930;2.266;2022-07-17T14:16:36;38.63;20.37
73149;SHT30;61346;48.930;2.266;2022-07-17T14:19:19;38.70;20.63
73149;SHT30;61346;48.930;2.266;2022-07-17T14:21:47;39.03;20.55
73149;SHT30;61346;48.930;2.266;2022-07-17T14:24:15;39.41;20.39
73149;SHT30;61346;48.930;2.266;2022-07-17T14:26:44;40.44;19.48
73149;SHT30;61346;48.930;2.266;2022-07-17T14:29:11;40.66;18.97
73149;SHT30;61346;48.930;2.266;2022-07-17T14:31:40;40.76;19.67
73149;SHT30;61346;48.930;2.266;2022-07-17T14:34:05;41.99;19.82
73149;SHT30;61346;48.930;2.266;2022-07-17T14:36:36;44.43;18.92
73149;SHT30;61346;48.930;2.266;2022-07-17T14:39:02;46.61;18.06
73149;SHT30;61346;48.930;2.266;2022-07-17T14:41:31;48.48;17.48
73149;SHT30;61346;48.930;2.266;2022-07-17T14:44:04;50.06;12.59
73149;SHT30;61346;48.930;2.266;2022-07-17T14:46:29;51.22;14.24
73149;SHT30;61346;48.930;2.266;2022-07-17T14:48:57;52.21;14.21
73149;SHT30;61346;48.930;2.266;2022-07-17T14:51:25;52.94;14.90
73149;SHT30;61346;48.930;2.266;2022-07-17T14:53:53;53.72;13.50
73149;SHT30;61346;48.930;2.266;2022-07-17T14:56:21;54.34;13.24
73149;SHT30;61346;48.930;2.266;2022-07-17T14:58:47;54.91;13.61
73149;SHT30;61346;48.930;2.266;2022-07-17T15:01:17;55.63;13.83
73149;SHT30;61346;48.930;2.266;2022-07-17T15:03:47;56.53;11.88
73149;SHT30;61346;48.930;2.266;2022-07-17T15:06:15;57.08;12.82
73149;SHT30;61346;48.930;2.266;2022-07-17T15:08:45;57.51;13.24
73149;SHT30;61346;48.930;2.266;2022-07-17T15:11:18;58.16;12.60
73149;SHT30;61346;48.930;2.266;2022-07-17T15:13:57;58.75;11.97
73149;SHT30;61346;48.930;2.266;2022-07-17T15:16:23;59.18;11.50
73149;SHT30;61346;48.930;2.266;2022-07-17T15:18:48;59.54;12.64
73149;SHT30;61346;48.930;2.266;2022-07-17T15:21:26;60.12;12.77
73149;SHT30;61346;48.930;2.266;2022-07-17T15:23:57;60.53;11.06
73149;SHT30;61346;48.930;2.266;2022-07-17T15:26:30;60.70;9.28
73149;SHT30;61346;48.930;2.266;2022-07-17T15:28:58;60.80;11.21
73149;SHT30;61346;48.930;2.266;2022-07-17T15:31:26;60.94;10.72
73149;SHT30;61346;48.930;2.266;2022-07-17T15:33:51;61.07;11.13
73149;SHT30;61346;48.930;2.266;2022-07-17T15:36:17;61.25;11.14
73149;SHT30;61346;48.930;2.266;2022-07-17T15:38:56;61.46;11.64
73149;SHT30;61346;48.930;2.266;2022-07-17T15:41:25;61.53;10.83
73149;SHT30;61346;48.930;2.266;2022-07-17T15:43:50;61.55;11.04
73149;SHT30;61346;48.930;2.266;2022-07-17T15:46:16;61.61;11.54
73149;SHT30;61346;48.930;2.266;2022-07-17T15:48:41;61.69;11.35
73149;SHT30;61346;48.930;2.266;2022-07-17T15:51:17;61.73;11.33
73149;SHT30;61346;48.930;2.266;2022-07-17T15:53:42;61.72;11.14
73149;SHT30;61346;48.930;2.266;2022-07-17T15:56:09;61.59;10.41
73149;SHT30;61346;48.930;2.266;2022-07-17T15:58:45;61.58;11.18
73149;SHT30;61346;48.930;2.266;2022-07-17T16:01:13;61.52;9.44
73149;SHT30;61346;48.930;2.266;2022-07-17T16:03:41;61.27;10.89
73149;SHT30;61346;48.930;2.266;2022-07-17T16:06:06;61.14;10.87
73149;SHT30;61346;48.930;2.266;2022-07-17T16:08:32;61.14;11.11
73149;SHT30;61346;48.930;2.266;2022-07-17T16:10:57;61.14;10.16